createdAt,value
2018-06-30T00:01:12.501Z,27.67
2018-06-30T00:03:47.198Z,28.53
2018-06-30T00:06:16.748Z,27.73
2018-06-30T00:08:46.416Z,27.53
2018-06-30T00:11:15.895Z,28.83
2018-06-30T00:13:45.369Z,28.10
2018-06-30T00:16:14.836Z,28.03
2018-06-30T00:18:44.242Z,28.67
2018-06-30T00:21:13.675Z,28.87
2018-06-30T00:23:43.029Z,28.33
2018-06-30T00:26:12.516Z,27.70
2018-06-30T00:28:42.127Z,27.93
2018-06-30T00:31:11.638Z,28.13
2018-06-30T00:33:41.118Z,28.40
2018-06-30T00:36:10.492Z,27.93
2018-06-30T00:38:39.985Z,28.47
2018-06-30T00:41:09.328Z,27.37
2018-06-30T00:43:42.568Z,28.97
2018-06-30T00:46:12.156Z,27.63
2018-06-30T00:48:41.693Z,29.03
2018-06-30T00:51:11.311Z,31.03
2018-06-30T00:53:40.761Z,31.23
2018-06-30T00:56:10.194Z,29.47
2018-06-30T00:58:39.553Z,30.27
2018-06-30T01:01:08.885Z,29.50
2018-06-30T01:03:38.109Z,31.17
2018-06-30T01:06:07.395Z,31.17
2018-06-30T01:08:36.750Z,30.97
2018-06-30T01:11:05.979Z,29.57
2018-06-30T01:13:35.220Z,29.80
2018-06-30T01:16:04.503Z,30.33
2018-06-30T01:18:33.921Z,30.63
2018-06-30T01:21:03.310Z,31.07
2018-06-30T01:23:32.888Z,30.73
2018-06-30T01:26:02.338Z,32.37
2018-06-30T01:28:31.674Z,31.40
2018-06-30T01:31:01.085Z,32.17
2018-06-30T01:33:30.664Z,31.83
2018-06-30T01:36:00.135Z,33.53
2018-06-30T01:38:29.596Z,33.33
2018-06-30T01:40:59.000Z,32.50
2018-06-30T01:43:28.470Z,33.67
2018-06-30T01:45:57.936Z,33.53
2018-06-30T01:48:27.297Z,31.93
2018-06-30T01:50:56.880Z,32.77
2018-06-30T01:53:26.214Z,32.07
2018-06-30T01:55:55.712Z,33.43
2018-06-30T01:58:25.062Z,34.83
2018-06-30T02:00:54.554Z,32.97
2018-06-30T02:03:24.004Z,32.73
2018-06-30T02:05:53.378Z,32.60
2018-06-30T02:08:22.790Z,32.60
2018-06-30T02:10:52.226Z,33.43
2018-06-30T02:13:21.696Z,35.87
2018-06-30T02:15:51.168Z,34.43
2018-06-30T02:18:20.610Z,35.10
2018-06-30T02:20:50.014Z,36.47
2018-06-30T02:23:19.480Z,36.50
2018-06-30T02:25:48.908Z,38.57
2018-06-30T02:28:18.225Z,37.77
2018-06-30T02:30:47.558Z,36.27
2018-06-30T02:33:17.013Z,38.20
2018-06-30T02:35:46.500Z,38.37
2018-06-30T02:38:16.331Z,36.07
2018-06-30T02:40:45.948Z,38.43
2018-06-30T02:43:15.390Z,39.40
2018-06-30T02:45:44.747Z,39.67
2018-06-30T02:48:14.259Z,35.93
2018-06-30T02:50:43.767Z,36.20
2018-06-30T02:53:13.163Z,36.37
2018-06-30T02:55:42.579Z,35.83
2018-06-30T02:58:12.006Z,35.83
2018-06-30T03:00:41.526Z,36.60
2018-06-30T03:03:10.951Z,37.33
2018-06-30T03:05:40.299Z,37.07
2018-06-30T03:08:09.641Z,37.70
2018-06-30T03:10:39.077Z,37.60
2018-06-30T03:13:08.397Z,36.83
2018-06-30T03:15:37.823Z,37.33
2018-06-30T03:18:07.334Z,38.47
2018-06-30T03:20:36.857Z,36.90
2018-06-30T03:23:06.416Z,38.00
2018-06-30T03:25:35.758Z,42.20
2018-06-30T03:28:05.296Z,38.47
2018-06-30T03:30:34.657Z,40.13
2018-06-30T03:33:04.023Z,40.13
2018-06-30T03:35:33.340Z,39.20
2018-06-30T03:38:02.739Z,39.77
2018-06-30T03:40:32.220Z,40.13
2018-06-30T03:43:01.693Z,42.03
2018-06-30T03:45:30.982Z,40.97
2018-06-30T03:48:00.324Z,40.40
2018-06-30T03:50:29.770Z,40.53
2018-06-30T03:52:59.057Z,40.63
2018-06-30T03:55:28.416Z,42.27
2018-06-30T03:57:57.775Z,39.47
2018-06-30T04:00:27.208Z,41.53
2018-06-30T04:02:56.505Z,41.50
2018-06-30T04:05:25.897Z,41.80
2018-06-30T04:07:55.408Z,40.23
2018-06-30T04:10:24.872Z,39.70
2018-06-30T04:12:54.221Z,39.93
2018-06-30T04:15:23.574Z,41.23
2018-06-30T04:17:53.020Z,41.63
2018-06-30T04:20:22.412Z,40.33
2018-06-30T04:22:51.929Z,41.63
2018-06-30T04:25:21.184Z,37.77
2018-06-30T04:27:50.629Z,39.27
2018-06-30T04:30:20.092Z,39.07
2018-06-30T04:32:49.375Z,37.03
2018-06-30T04:35:18.707Z,37.23
2018-06-30T04:37:48.019Z,36.33
2018-06-30T04:40:17.435Z,36.00
2018-06-30T04:42:46.777Z,35.53
2018-06-30T04:45:16.202Z,35.90
2018-06-30T04:47:45.603Z,33.43
2018-06-30T04:50:14.839Z,33.23
2018-06-30T04:52:44.453Z,33.30
2018-06-30T04:55:13.857Z,33.37
2018-06-30T04:57:43.343Z,31.80
2018-06-30T05:00:12.777Z,31.93
2018-06-30T05:02:42.073Z,30.73
2018-06-30T05:05:11.419Z,30.53
2018-06-30T05:07:40.807Z,30.63
2018-06-30T05:10:10.357Z,30.57
2018-06-30T05:12:39.859Z,30.70
2018-06-30T05:15:09.319Z,30.10
2018-06-30T05:17:38.802Z,30.03
2018-06-30T05:20:08.228Z,29.37
2018-06-30T05:22:37.808Z,29.00
2018-06-30T05:25:07.264Z,30.43
2018-06-30T05:27:36.662Z,29.70
2018-06-30T05:30:06.266Z,29.37
2018-06-30T05:32:35.749Z,28.50
2018-06-30T05:35:05.370Z,26.80
2018-06-30T05:37:34.958Z,27.50
2018-06-30T05:40:04.859Z,28.17
2018-06-30T05:42:34.380Z,27.87
2018-06-30T05:45:03.900Z,28.30
2018-06-30T05:47:33.296Z,27.70
2018-06-30T05:50:02.733Z,25.30
2018-06-30T05:52:32.446Z,24.77
2018-06-30T05:55:02.024Z,25.70
2018-06-30T05:57:31.642Z,25.53
2018-06-30T06:00:01.390Z,25.50
2018-06-30T06:02:31.040Z,24.47
2018-06-30T06:05:00.726Z,24.53
2018-06-30T06:07:30.086Z,24.30
2018-06-30T06:09:59.614Z,23.90
2018-06-30T06:12:29.051Z,23.50
2018-06-30T06:14:58.509Z,24.30
2018-06-30T06:17:27.994Z,22.80
2018-06-30T06:19:57.438Z,22.90
2018-06-30T06:22:26.890Z,23.43
2018-06-30T06:24:56.488Z,24.43
2018-06-30T06:27:26.118Z,23.87
2018-06-30T06:29:55.699Z,21.73
2018-06-30T06:32:25.309Z,23.00
2018-06-30T06:34:54.859Z,21.53
2018-06-30T06:37:24.402Z,22.30
2018-06-30T06:39:53.902Z,22.73
2018-06-30T06:42:23.474Z,21.33
2018-06-30T06:44:52.927Z,22.63
2018-06-30T06:47:22.481Z,22.20
2018-06-30T06:49:51.945Z,21.77
2018-06-30T06:52:21.483Z,21.93
2018-06-30T06:54:51.038Z,22.40
2018-06-30T06:57:20.814Z,23.03
2018-06-30T06:59:50.357Z,24.23
2018-06-30T07:02:19.979Z,22.70
2018-06-30T07:04:49.607Z,23.10
2018-06-30T07:07:19.251Z,22.87
2018-06-30T07:09:48.803Z,22.83
2018-06-30T07:12:18.492Z,23.20
2018-06-30T07:14:48.225Z,23.80
2018-06-30T07:17:18.061Z,22.33
2018-06-30T07:19:47.716Z,22.17
2018-06-30T07:22:17.240Z,23.30
2018-06-30T07:24:46.849Z,22.53
2018-06-30T07:27:16.355Z,22.17
2018-06-30T07:29:46.029Z,21.87
2018-06-30T07:32:15.587Z,23.33
2018-06-30T07:34:45.169Z,22.00
2018-06-30T07:37:14.799Z,21.73
2018-06-30T07:39:44.552Z,21.13
2018-06-30T07:42:13.981Z,20.80
2018-06-30T07:44:43.561Z,20.63
2018-06-30T07:47:13.033Z,20.40
2018-06-30T07:49:42.651Z,21.87
2018-06-30T07:52:12.247Z,21.73
2018-06-30T07:54:41.883Z,21.10
2018-06-30T07:57:11.338Z,20.00
2018-06-30T07:59:41.117Z,22.50
2018-06-30T08:02:10.682Z,22.03
2018-06-30T08:04:40.105Z,20.97
2018-06-30T08:07:09.712Z,20.87
2018-06-30T08:09:39.300Z,21.57
2018-06-30T08:12:09.580Z,19.93
2018-06-30T08:14:39.069Z,21.50
2018-06-30T08:17:08.478Z,22.17
2018-06-30T08:19:37.937Z,20.63
2018-06-30T08:22:07.591Z,21.03
2018-06-30T08:24:37.017Z,20.33
2018-06-30T08:27:06.534Z,20.83
2018-06-30T08:29:36.133Z,20.53
2018-06-30T08:32:05.553Z,19.53
2018-06-30T08:34:35.056Z,19.73
2018-06-30T08:37:04.497Z,19.53
2018-06-30T08:39:33.910Z,21.73
2018-06-30T08:42:03.313Z,23.50
2018-06-30T08:44:32.757Z,21.70
2018-06-30T08:47:02.238Z,20.60
2018-06-30T08:49:31.717Z,18.60
2018-06-30T08:52:01.132Z,19.93
2018-06-30T08:54:30.741Z,18.97
2018-06-30T08:57:00.345Z,18.67
2018-06-30T08:59:29.798Z,16.90
2018-06-30T09:01:59.242Z,14.00
2018-06-30T09:04:28.712Z,15.73
2018-06-30T09:06:58.199Z,16.03
2018-06-30T09:09:27.665Z,15.20
2018-06-30T09:11:57.264Z,15.93
2018-06-30T09:14:26.675Z,16.13
2018-06-30T09:16:56.191Z,14.97
2018-06-30T09:19:25.825Z,14.20
2018-06-30T09:21:55.283Z,15.90
2018-06-30T09:24:25.082Z,16.10
2018-06-30T09:26:54.637Z,15.37
2018-06-30T09:29:24.410Z,14.30
2018-06-30T09:31:53.924Z,14.00
2018-06-30T09:34:23.370Z,14.40
2018-06-30T09:36:52.734Z,14.37
2018-06-30T09:39:22.484Z,15.97
2018-06-30T09:41:52.058Z,15.03
2018-06-30T09:44:21.752Z,14.93
2018-06-30T09:46:51.261Z,14.80
2018-06-30T09:49:20.736Z,15.57
2018-06-30T09:51:50.218Z,14.17
2018-06-30T09:54:19.919Z,14.97
2018-06-30T09:56:49.361Z,12.07
2018-06-30T09:59:18.734Z,11.80
2018-06-30T10:01:48.170Z,12.27
2018-06-30T10:04:17.546Z,13.60
2018-06-30T10:06:46.997Z,13.90
2018-06-30T10:09:16.431Z,11.80
2018-06-30T10:11:45.828Z,12.23
2018-06-30T10:14:15.286Z,11.33
2018-06-30T10:16:44.609Z,10.93
2018-06-30T10:19:14.236Z,12.27
2018-06-30T10:21:43.747Z,12.03
2018-06-30T10:24:13.159Z,13.03
2018-06-30T10:26:42.552Z,11.77
2018-06-30T10:29:11.903Z,11.20
2018-06-30T10:31:41.412Z,13.13
2018-06-30T10:34:10.879Z,12.27
2018-06-30T10:36:40.305Z,12.00
2018-06-30T10:39:11.357Z,12.97
2018-06-30T10:41:41.293Z,10.60
2018-06-30T10:44:10.787Z,11.20
2018-06-30T10:46:40.326Z,12.13
2018-06-30T10:49:10.197Z,12.93
2018-06-30T10:51:39.785Z,10.90
2018-06-30T10:54:09.307Z,13.15
2018-06-30T10:56:38.751Z,10.98
2018-06-30T10:59:08.277Z,12.53
2018-06-30T11:01:37.919Z,13.70
2018-06-30T11:04:07.447Z,14.43
2018-06-30T11:06:36.924Z,13.93
2018-06-30T11:09:09.323Z,14.68
2018-06-30T11:11:38.837Z,13.22
2018-06-30T11:14:08.418Z,14.50
2018-06-30T11:16:37.955Z,14.73
2018-06-30T11:19:07.547Z,15.40
2018-06-30T11:21:37.135Z,13.58
2018-06-30T11:24:06.724Z,14.33
2018-06-30T11:26:36.268Z,15.08
2018-06-30T11:29:05.674Z,15.03
2018-06-30T11:31:35.219Z,14.95
2018-06-30T11:34:04.918Z,14.47
2018-06-30T11:36:34.524Z,15.32
2018-06-30T11:39:04.530Z,12.95
2018-06-30T11:41:34.014Z,13.18
2018-06-30T11:44:03.687Z,13.72
2018-06-30T11:47:36.890Z,15.00
2018-06-30T11:50:06.486Z,12.55
2018-06-30T11:52:36.116Z,13.05
2018-06-30T11:55:05.999Z,14.07
2018-06-30T11:57:35.492Z,13.28
2018-06-30T12:00:05.877Z,13.25
2018-06-30T12:02:35.440Z,12.90
2018-06-30T12:05:05.884Z,13.83
2018-06-30T12:07:35.577Z,13.53
2018-06-30T12:10:05.768Z,13.20
2018-06-30T12:12:35.352Z,11.40
2018-06-30T12:15:05.084Z,12.07
2018-06-30T12:17:34.593Z,13.68
2018-06-30T12:20:04.879Z,11.65
2018-06-30T12:22:34.511Z,13.58
2018-06-30T12:25:04.261Z,12.55
2018-06-30T12:27:34.787Z,13.43
2018-06-30T12:30:04.914Z,11.55
2018-06-30T12:32:34.487Z,10.88
2018-06-30T12:35:04.022Z,11.53
2018-06-30T12:37:33.422Z,10.82
2018-06-30T12:40:02.819Z,13.25
2018-06-30T12:42:32.385Z,13.93
2018-06-30T12:45:01.809Z,12.00
2018-06-30T12:47:31.371Z,13.13
2018-06-30T12:50:00.696Z,13.08
2018-06-30T12:52:30.114Z,11.53
2018-06-30T12:54:59.590Z,11.73
2018-06-30T12:57:28.987Z,12.75
2018-06-30T12:59:58.508Z,11.35
2018-06-30T13:02:27.983Z,10.48
2018-06-30T13:04:57.522Z,11.55
2018-06-30T13:07:26.957Z,11.55
2018-06-30T13:09:56.352Z,12.33
2018-06-30T13:12:25.863Z,11.38
2018-06-30T13:14:55.352Z,12.05
2018-06-30T13:17:24.807Z,11.25
2018-06-30T13:19:54.245Z,11.18
2018-06-30T13:22:23.812Z,10.13
2018-06-30T13:26:22.755Z,10.82
2018-06-30T13:28:52.399Z,11.03
2018-06-30T13:31:21.791Z,11.15
2018-06-30T13:33:51.373Z,11.05
2018-06-30T13:36:20.969Z,11.38
2018-06-30T13:38:50.432Z,11.90
2018-06-30T13:41:19.942Z,10.55
2018-06-30T13:43:49.662Z,10.10
2018-06-30T13:46:19.214Z,9.15
2018-06-30T13:48:48.750Z,9.75
2018-06-30T13:51:18.406Z,9.33
2018-06-30T13:53:47.818Z,10.45
2018-06-30T13:56:17.207Z,9.95
2018-06-30T13:58:46.644Z,10.68
2018-06-30T14:01:16.344Z,10.05
2018-06-30T14:03:45.858Z,9.88
2018-06-30T14:06:15.400Z,9.38
2018-06-30T14:08:45.086Z,8.80
2018-06-30T14:11:14.486Z,8.20
2018-06-30T14:13:44.257Z,8.73
2018-06-30T14:16:13.672Z,9.08
2018-06-30T14:18:43.249Z,8.48
2018-06-30T14:21:12.711Z,8.45
2018-06-30T14:23:42.254Z,7.47
2018-06-30T14:26:11.746Z,8.60
2018-06-30T14:28:41.354Z,8.13
2018-06-30T14:31:10.889Z,8.10
2018-06-30T14:33:40.239Z,6.92
2018-06-30T14:36:09.785Z,6.67
2018-06-30T14:38:39.299Z,6.53
2018-06-30T14:41:08.791Z,7.08
2018-06-30T14:43:38.393Z,6.78
2018-06-30T14:46:07.843Z,6.42
2018-06-30T14:48:37.197Z,7.12
2018-06-30T14:51:06.833Z,6.53
2018-06-30T14:53:36.504Z,6.25
2018-06-30T14:56:06.325Z,6.10
2018-06-30T14:58:35.675Z,6.60
2018-06-30T15:01:05.197Z,6.10
2018-06-30T15:03:34.782Z,6.25
2018-06-30T15:06:04.469Z,7.00
2018-06-30T15:08:33.917Z,5.92
2018-06-30T15:11:03.545Z,7.12
2018-06-30T15:13:33.032Z,6.25
2018-06-30T15:16:02.501Z,5.85
2018-06-30T15:25:16.093Z,5.40
2018-06-30T15:27:45.653Z,5.70
2018-06-30T15:30:15.079Z,5.92
2018-06-30T15:32:44.416Z,5.53
2018-06-30T15:35:13.818Z,4.97
2018-06-30T15:37:43.636Z,6.40
2018-06-30T15:40:13.686Z,5.40
2018-06-30T15:42:43.151Z,5.60
2018-06-30T15:45:12.539Z,5.30
2018-06-30T15:47:41.968Z,5.30
2018-06-30T15:50:12.321Z,5.50
2018-06-30T15:52:41.816Z,4.83
2018-06-30T15:55:11.178Z,5.25
2018-06-30T15:57:40.803Z,5.55
2018-06-30T16:00:10.304Z,5.67
2018-06-30T16:02:39.825Z,5.80
2018-06-30T16:05:09.468Z,5.12
2018-06-30T16:07:39.020Z,5.20
2018-06-30T16:10:09.547Z,5.35
2018-06-30T16:12:38.976Z,5.00
2018-06-30T16:15:08.309Z,4.90
2018-06-30T16:17:37.804Z,4.67
2018-06-30T16:20:07.399Z,4.72
2018-06-30T16:22:36.796Z,5.20
2018-06-30T16:25:06.968Z,4.83
2018-06-30T16:27:36.570Z,4.50
2018-06-30T16:30:07.338Z,6.15
2018-06-30T16:32:36.701Z,6.60
2018-06-30T16:35:06.173Z,5.87
2018-06-30T16:37:35.713Z,5.03
2018-06-30T16:40:05.217Z,4.95
2018-06-30T16:42:34.681Z,4.58
2018-06-30T16:45:04.411Z,4.95
2018-06-30T16:47:33.757Z,6.97
2018-06-30T16:50:03.319Z,6.10
2018-06-30T16:52:32.819Z,5.28
2018-06-30T16:55:02.414Z,4.40
2018-06-30T16:57:31.841Z,5.28
2018-06-30T17:00:01.379Z,5.42
2018-06-30T17:02:31.162Z,4.80
2018-06-30T17:05:00.613Z,5.03
2018-06-30T17:07:30.268Z,4.50
2018-06-30T17:09:59.863Z,4.22
2018-06-30T17:12:29.437Z,4.40
2018-06-30T17:14:58.984Z,4.10
2018-06-30T17:17:28.598Z,4.35
2018-06-30T17:19:57.982Z,3.95
2018-06-30T17:22:27.426Z,4.20
2018-06-30T17:24:56.734Z,4.10
2018-06-30T17:27:26.040Z,4.00
2018-06-30T17:29:55.370Z,4.12
2018-06-30T17:32:24.772Z,3.77
2018-06-30T17:34:54.444Z,3.45
2018-06-30T17:37:23.953Z,4.45
2018-06-30T17:39:53.476Z,4.12
2018-06-30T17:42:22.903Z,4.00
2018-06-30T17:44:52.317Z,3.85
2018-06-30T17:47:21.690Z,4.35
2018-06-30T17:49:51.096Z,4.20
2018-06-30T17:52:20.602Z,3.90
2018-06-30T17:54:50.130Z,3.87
2018-06-30T17:57:19.509Z,3.80
2018-06-30T17:59:49.030Z,3.92
2018-06-30T18:02:18.578Z,4.13
2018-06-30T18:04:48.177Z,3.53
2018-06-30T18:07:17.665Z,4.13
2018-06-30T18:09:47.124Z,3.97
2018-06-30T18:12:16.652Z,4.37
2018-06-30T18:14:45.995Z,4.17
2018-06-30T18:17:15.451Z,4.13
2018-06-30T18:19:44.900Z,4.30
2018-06-30T18:22:14.280Z,4.30
2018-06-30T18:24:43.797Z,4.30
2018-06-30T18:27:13.155Z,4.37
2018-06-30T18:29:42.521Z,4.00
2018-06-30T18:32:11.964Z,4.10
2018-06-30T18:34:41.449Z,4.27
2018-06-30T18:37:10.963Z,4.50
2018-06-30T18:39:40.411Z,4.43
2018-06-30T18:42:09.801Z,4.20
2018-06-30T18:44:39.270Z,4.23
2018-06-30T18:47:08.733Z,3.83
2018-06-30T18:49:38.344Z,4.40
2018-06-30T18:52:07.868Z,4.37
2018-06-30T18:54:37.198Z,4.60
2018-06-30T18:57:06.569Z,4.40
2018-06-30T18:59:35.887Z,4.20
2018-06-30T19:02:05.351Z,4.70
2018-06-30T19:04:34.621Z,4.40
2018-06-30T19:07:04.013Z,4.43
2018-06-30T19:09:33.234Z,5.43
2018-06-30T19:12:02.563Z,4.37
2018-06-30T19:14:38.366Z,3.90
2018-06-30T19:17:17.136Z,3.97
2018-06-30T19:19:55.330Z,3.70
2018-06-30T19:22:33.319Z,3.80
2018-06-30T19:25:03.736Z,3.40
2018-06-30T19:27:33.346Z,3.17
2018-06-30T19:30:02.943Z,3.60
2018-06-30T19:32:32.490Z,4.13
2018-06-30T19:35:02.125Z,3.60
2018-06-30T19:37:31.670Z,3.40
2018-06-30T19:40:01.319Z,3.10
2018-06-30T19:42:37.455Z,3.53
2018-06-30T19:45:15.392Z,2.67
2018-06-30T19:47:52.714Z,2.93
2018-06-30T19:50:33.562Z,2.63
2018-06-30T19:53:03.114Z,2.63
2018-06-30T19:55:32.725Z,2.20
2018-06-30T19:58:02.135Z,2.40
2018-06-30T20:00:31.553Z,2.20
2018-06-30T20:03:00.945Z,2.17
2018-06-30T20:05:30.475Z,2.10
2018-06-30T20:08:00.011Z,1.83
2018-06-30T20:10:29.523Z,1.80
2018-06-30T20:12:59.042Z,1.87
2018-06-30T20:15:28.792Z,2.03
2018-06-30T20:17:58.419Z,1.67
2018-06-30T20:20:27.883Z,1.90
2018-06-30T20:22:57.496Z,1.80
2018-06-30T20:25:27.021Z,1.80
2018-06-30T20:27:56.397Z,1.70
2018-06-30T20:30:25.867Z,1.70
2018-06-30T20:32:55.348Z,1.63
2018-06-30T20:35:24.833Z,1.97
2018-06-30T20:37:54.363Z,1.63
2018-06-30T20:40:23.783Z,1.50
2018-06-30T20:42:53.315Z,1.50
2018-06-30T20:45:22.840Z,1.33
2018-06-30T20:47:52.210Z,1.50
2018-06-30T20:50:21.653Z,1.67
2018-06-30T20:52:51.038Z,1.40
2018-06-30T20:55:20.571Z,1.50
2018-06-30T20:57:50.013Z,1.70
2018-06-30T21:00:19.611Z,1.53
2018-06-30T21:02:49.045Z,1.60
2018-06-30T21:05:18.600Z,1.47
2018-06-30T21:07:48.036Z,1.50
2018-06-30T21:10:17.541Z,1.70
2018-06-30T21:12:47.088Z,1.60
2018-06-30T21:15:16.455Z,1.43
2018-06-30T21:17:46.004Z,1.50
2018-06-30T21:20:15.518Z,1.60
2018-06-30T21:22:45.122Z,1.40
2018-06-30T21:25:14.542Z,1.53
2018-06-30T21:27:44.118Z,1.40
2018-06-30T21:30:13.598Z,1.70
2018-06-30T21:32:43.217Z,1.30
2018-06-30T21:35:12.901Z,1.23
2018-06-30T21:37:42.388Z,1.40
2018-06-30T21:40:11.818Z,1.27
2018-06-30T21:42:42.098Z,1.60
2018-06-30T21:45:11.556Z,1.20
2018-06-30T21:47:41.047Z,1.57
2018-06-30T21:50:10.648Z,1.57
2018-06-30T21:52:40.124Z,1.20
2018-06-30T21:55:09.878Z,1.23
2018-06-30T21:57:39.476Z,1.30
2018-06-30T22:00:11.949Z,1.90
2018-06-30T22:02:41.469Z,1.43
2018-06-30T22:05:11.482Z,1.60
2018-06-30T22:07:41.094Z,1.40
2018-06-30T22:10:10.552Z,1.40
2018-06-30T22:12:40.111Z,1.40
2018-06-30T22:15:09.646Z,1.30
2018-06-30T22:17:39.252Z,1.60
2018-06-30T22:20:08.870Z,1.33
2018-06-30T22:22:38.411Z,1.53
2018-06-30T22:25:08.051Z,1.60
2018-06-30T22:27:37.545Z,1.30
2018-06-30T22:30:07.252Z,1.30
2018-06-30T22:32:36.673Z,1.30
2018-06-30T22:35:06.041Z,1.30
2018-06-30T22:37:35.531Z,1.90
2018-06-30T22:40:11.429Z,1.23
2018-06-30T22:42:40.910Z,1.20
2018-06-30T22:45:10.299Z,1.10
2018-06-30T22:47:39.753Z,1.13
2018-06-30T22:50:09.339Z,1.77
2018-06-30T22:52:39.272Z,1.20
2018-06-30T22:55:08.632Z,1.20
2018-06-30T22:57:38.119Z,0.90
2018-06-30T23:00:09.517Z,1.20
2018-06-30T23:02:39.393Z,1.33
2018-06-30T23:05:09.448Z,1.30
2018-06-30T23:07:38.918Z,1.07
2018-06-30T23:10:09.161Z,0.93
2018-06-30T23:12:38.591Z,1.40
2018-06-30T23:15:08.248Z,1.27
2018-06-30T23:17:37.746Z,1.23
2018-06-30T23:20:07.939Z,1.30
2018-06-30T23:23:11.770Z,1.20
2018-06-30T23:25:41.861Z,1.33
2018-06-30T23:28:11.332Z,1.17
2018-06-30T23:30:43.678Z,1.10
2018-06-30T23:33:13.880Z,1.20
2018-06-30T23:35:43.482Z,1.30
2018-06-30T23:38:13.090Z,1.30
2018-06-30T23:40:42.575Z,1.20
2018-06-30T23:43:12.068Z,1.23
2018-06-30T23:45:41.606Z,1.33
2018-06-30T23:48:11.046Z,1.10
2018-06-30T23:50:40.551Z,1.13
2018-06-30T23:53:09.889Z,1.30
2018-06-30T23:55:39.413Z,1.17
2018-06-30T23:58:08.839Z,1.17
